Time;durP1;ratioP1;P1;durP2;ratioP2;P2;SDS_P1;SDS_P2;PMS_P1;PMS_P2;Temp;Humidity;BMP_temperature;BMP_pressure;BME280_temperature;BME280_humidity;BME280_pressure;Samples;Min_cycle;Max_cycle;Signal;HPM_P1;HPM_P2
2021/12/09 00:00:11;;;;;;;16.33;9.90;;;;;;;;;;5137258;27;20195;-86
2021/12/09 00:02:40;;;;;;;15.03;10.80;;;;;;;;;;5136354;27;20199;-86
2021/12/09 00:05:09;;;;;;;15.80;11.80;;;;;;;;;;5136948;27;20225;-86
2021/12/09 00:07:38;;;;;;;16.40;12.37;;;;;;;;;;5136878;27;20223;-86
2021/12/09 00:10:08;;;;;;;16.00;12.33;;;;;;;;;;5137106;27;20222;-86
2021/12/09 00:12:38;;;;;;;14.17;10.77;;;;;;;;;;5136819;27;20200;-86
2021/12/09 00:15:07;;;;;;;14.07;12.67;;;;;;;;;;5136818;27;20198;-87
2021/12/09 00:17:36;;;;;;;14.63;9.83;;;;;;;;;;5136570;27;20228;-86
2021/12/09 00:20:05;;;;;;;16.27;13.37;;;;;;;;;;5136439;27;20268;-86
2021/12/09 00:22:33;;;;;;;13.90;11.47;;;;;;;;;;5136465;27;20234;-86
2021/12/09 00:25:02;;;;;;;14.60;9.43;;;;;;;;;;5136497;27;20203;-86
2021/12/09 00:27:30;;;;;;;16.33;10.27;;;;;;;;;;5136306;27;20272;-86
2021/12/09 00:30:00;;;;;;;19.53;13.13;;;;;;;;;;5136374;27;20253;-86
2021/12/09 00:32:29;;;;;;;18.90;12.97;;;;;;;;;;5136139;27;20215;-86
2021/12/09 00:34:57;;;;;;;17.63;12.27;;;;;;;;;;5135896;27;20275;-86
2021/12/09 00:37:32;;;;;;;18.27;12.57;;;;;;;;;;5136194;27;20204;-86
2021/12/09 00:40:00;;;;;;;14.80;10.57;;;;;;;;;;5136289;27;20278;-86
2021/12/09 00:42:29;;;;;;;14.50;12.33;;;;;;;;;;5136222;27;20238;-86
2021/12/09 00:44:58;;;;;;;20.67;12.37;;;;;;;;;;5136347;27;20198;-86
2021/12/09 00:47:30;;;;;;;16.67;12.07;;;;;;;;;;5136057;27;20258;-86
2021/12/09 00:49:59;;;;;;;19.83;13.90;;;;;;;;;;5136625;27;20222;-86
2021/12/09 00:52:27;;;;;;;12.80;9.93;;;;;;;;;;5136298;27;20199;-87
2021/12/09 00:54:57;;;;;;;16.27;13.27;;;;;;;;;;5135779;27;20199;-86
2021/12/09 00:57:26;;;;;;;14.73;10.23;;;;;;;;;;5135853;27;20225;-86
2021/12/09 00:59:54;;;;;;;16.63;11.57;;;;;;;;;;5136294;27;20233;-86
2021/12/09 01:02:22;;;;;;;6.10;4.70;;;;;;;;;;5135552;27;20253;-86
2021/12/09 01:04:52;;;;;;;12.60;11.30;;;;;;;;;;5135667;27;20268;-86
2021/12/09 01:07:24;;;;;;;19.03;12.27;;;;;;;;;;5134199;27;20349;-86
2021/12/09 01:09:55;;;;;;;17.77;13.63;;;;;;;;;;5135648;27;20205;-86
2021/12/09 01:12:23;;;;;;;14.43;12.63;;;;;;;;;;5135800;27;20191;-86
2021/12/09 01:14:52;;;;;;;17.70;14.73;;;;;;;;;;5135776;27;20224;-86
2021/12/09 01:17:22;;;;;;;22.23;12.60;;;;;;;;;;5134335;27;20242;-86
2021/12/09 01:19:52;;;;;;;15.53;12.20;;;;;;;;;;5136154;27;20198;-86
2021/12/09 01:22:30;;;;;;;14.53;11.70;;;;;;;;;;5136012;27;20219;-86
2021/12/09 01:24:58;;;;;;;20.63;13.93;;;;;;;;;;5135591;27;20233;-86
2021/12/09 01:27:28;;;;;;;11.77;10.53;;;;;;;;;;5135484;27;20200;-86
2021/12/09 01:29:56;;;;;;;17.03;13.10;;;;;;;;;;5135839;27;20256;-86
2021/12/09 01:32:29;;;;;;;19.47;14.13;;;;;;;;;;5135525;27;20236;-86
2021/12/09 01:34:57;;;;;;;19.10;13.33;;;;;;;;;;5135672;27;20220;-86
2021/12/09 01:37:27;;;;;;;25.37;14.47;;;;;;;;;;5135161;27;20203;-86
2021/12/09 01:39:55;;;;;;;19.83;15.63;;;;;;;;;;5135504;27;20233;-86
2021/12/09 01:42:24;;;;;;;20.50;15.13;;;;;;;;;;5135360;27;20278;-86
2021/12/09 01:44:52;;;;;;;20.07;15.30;;;;;;;;;;5135599;27;20199;-86
2021/12/09 01:47:21;;;;;;;20.87;16.67;;;;;;;;;;5135764;27;20193;-86
2021/12/09 01:49:50;;;;;;;19.17;15.87;;;;;;;;;;5135322;27;20242;-86
2021/12/09 01:52:18;;;;;;;20.03;13.03;;;;;;;;;;5135502;27;20225;-86
2021/12/09 01:54:48;;;;;;;21.60;16.67;;;;;;;;;;5135272;27;20278;-85
2021/12/09 01:57:17;;;;;;;20.87;12.47;;;;;;;;;;5135626;27;20198;-86
2021/12/09 01:59:46;;;;;;;19.47;13.80;;;;;;;;;;5135065;28;20198;-86
2021/12/09 02:02:14;;;;;;;19.60;14.67;;;;;;;;;;5135496;27;20195;-86
2021/12/09 02:04:43;;;;;;;24.27;17.10;;;;;;;;;;5135207;27;20215;-86
2021/12/09 02:07:11;;;;;;;20.93;16.27;;;;;;;;;;5135333;27;20230;-86
2021/12/09 02:09:40;;;;;;;19.87;17.47;;;;;;;;;;5134979;27;20272;-86
2021/12/09 02:12:11;;;;;;;19.37;12.73;;;;;;;;;;5135631;27;20253;-86
2021/12/09 02:14:42;;;;;;;19.17;15.47;;;;;;;;;;5134948;27;20325;-86
2021/12/09 02:17:11;;;;;;;23.07;15.83;;;;;;;;;;5134652;28;20235;-86
2021/12/09 02:19:42;;;;;;;18.47;13.93;;;;;;;;;;5136813;27;20192;-86
2021/12/09 02:22:14;;;;;;;18.40;14.97;;;;;;;;;;5138863;27;20201;-86
2021/12/09 02:24:43;;;;;;;27.33;16.67;;;;;;;;;;5139024;27;20188;-86
2021/12/09 02:27:11;;;;;;;17.97;14.10;;;;;;;;;;5138876;27;20199;-86
2021/12/09 02:29:41;;;;;;;18.73;15.00;;;;;;;;;;5138674;27;20227;-86
2021/12/09 02:32:09;;;;;;;23.83;15.37;;;;;;;;;;5138489;27;20210;-87
2021/12/09 02:34:38;;;;;;;13.53;8.87;;;;;;;;;;5138736;27;20296;-86
2021/12/09 02:37:09;;;;;;;21.63;13.60;;;;;;;;;;5138794;27;20209;-86
2021/12/09 02:39:39;;;;;;;19.07;11.37;;;;;;;;;;5138294;27;20184;-86
2021/12/09 02:42:08;;;;;;;26.60;18.97;;;;;;;;;;5138927;27;20297;-86
2021/12/09 02:44:36;;;;;;;14.77;12.77;;;;;;;;;;5138804;27;20213;-86
2021/12/09 02:47:05;;;;;;;23.90;14.10;;;;;;;;;;5138460;27;20199;-86
2021/12/09 02:49:34;;;;;;;20.30;17.00;;;;;;;;;;5137771;27;20252;-86
2021/12/09 02:52:03;;;;;;;27.30;17.80;;;;;;;;;;5138423;27;20263;-86
2021/12/09 02:54:32;;;;;;;27.53;15.67;;;;;;;;;;5138322;27;20225;-86
2021/12/09 02:57:03;;;;;;;18.27;14.63;;;;;;;;;;5138019;27;20241;-86
2021/12/09 02:59:32;;;;;;;21.83;14.97;;;;;;;;;;5138322;27;20221;-86
2021/12/09 03:02:03;;;;;;;21.57;15.67;;;;;;;;;;5137755;27;20227;-86
2021/12/09 03:04:38;;;;;;;22.30;16.13;;;;;;;;;;5137669;27;20217;-86
2021/12/09 03:07:06;;;;;;;31.53;20.03;;;;;;;;;;5138077;27;20237;-86
2021/12/09 03:09:35;;;;;;;22.20;15.13;;;;;;;;;;5137719;27;20232;-86
2021/12/09 03:12:12;;;;;;;20.90;16.83;;;;;;;;;;5138248;27;20251;-86
2021/12/09 03:14:40;;;;;;;20.93;17.53;;;;;;;;;;5138051;27;20192;-86
2021/12/09 03:17:09;;;;;;;23.33;16.57;;;;;;;;;;5137765;27;20231;-86
2021/12/09 03:19:37;;;;;;;24.97;17.20;;;;;;;;;;5138137;27;20195;-86
2021/12/09 03:22:06;;;;;;;24.50;18.57;;;;;;;;;;5138040;27;20199;-86
2021/12/09 03:24:34;;;;;;;23.03;16.80;;;;;;;;;;5138037;27;20205;-86
2021/12/09 03:27:03;;;;;;;12.43;9.27;;;;;;;;;;5137896;27;20237;-86
2021/12/09 03:29:33;;;;;;;20.77;16.53;;;;;;;;;;5137157;27;20224;-86
2021/12/09 03:32:06;;;;;;;26.30;17.17;;;;;;;;;;5137378;27;20293;-86
2021/12/09 03:34:35;;;;;;;22.13;15.53;;;;;;;;;;5137601;27;20269;-86
2021/12/09 03:37:06;;;;;;;15.33;11.83;;;;;;;;;;5137351;27;20238;-86
2021/12/09 03:39:36;;;;;;;22.27;15.03;;;;;;;;;;5137508;27;20202;-86
2021/12/09 03:42:06;;;;;;;22.40;15.93;;;;;;;;;;5137872;27;20194;-86
2021/12/09 03:44:36;;;;;;;15.53;12.17;;;;;;;;;;5137286;27;20259;-86
2021/12/09 03:47:06;;;;;;;21.97;15.03;;;;;;;;;;5137221;27;20259;-86
2021/12/09 03:49:34;;;;;;;9.67;6.23;;;;;;;;;;5136661;27;20226;-86
2021/12/09 03:52:04;;;;;;;17.40;12.37;;;;;;;;;;5137432;27;20203;-86
2021/12/09 03:54:32;;;;;;;18.80;12.03;;;;;;;;;;5137322;27;20240;-86
2021/12/09 03:57:01;;;;;;;18.40;12.80;;;;;;;;;;5137221;27;20211;-86
2021/12/09 03:59:29;;;;;;;17.47;12.87;;;;;;;;;;5136633;27;20191;-86
2021/12/09 04:01:59;;;;;;;19.07;13.93;;;;;;;;;;5136869;27;20226;-86
2021/12/09 04:04:28;;;;;;;24.73;15.77;;;;;;;;;;5137133;27;20212;-86
2021/12/09 04:06:56;;;;;;;19.17;13.90;;;;;;;;;;5136486;27;20242;-86
2021/12/09 04:09:25;;;;;;;14.20;11.10;;;;;;;;;;5136478;27;20227;-86
2021/12/09 04:11:54;;;;;;;18.33;14.20;;;;;;;;;;5136754;27;20227;-86
2021/12/09 04:14:24;;;;;;;19.57;15.30;;;;;;;;;;5136823;27;20206;-86
2021/12/09 04:16:53;;;;;;;15.57;13.93;;;;;;;;;;5136631;27;20206;-86
2021/12/09 04:19:23;;;;;;;14.23;11.87;;;;;;;;;;5137085;27;20191;-86
2021/12/09 04:21:51;;;;;;;21.47;15.50;;;;;;;;;;5136710;27;20409;-86
2021/12/09 04:24:22;;;;;;;17.87;12.50;;;;;;;;;;5136531;27;20257;-86
2021/12/09 04:26:51;;;;;;;22.47;17.20;;;;;;;;;;5136541;27;20231;-86
2021/12/09 04:29:22;;;;;;;18.77;15.50;;;;;;;;;;5136624;27;20193;-86
2021/12/09 04:31:51;;;;;;;25.50;19.07;;;;;;;;;;5136507;27;20296;-86
2021/12/09 04:34:20;;;;;;;24.70;17.40;;;;;;;;;;5136481;27;20234;-86
2021/12/09 04:36:52;;;;;;;21.87;18.50;;;;;;;;;;5136674;27;20224;-86
2021/12/09 04:39:20;;;;;;;21.00;15.93;;;;;;;;;;5136440;27;20192;-86
2021/12/09 04:41:50;;;;;;;24.67;19.50;;;;;;;;;;5135755;27;20233;-86
2021/12/09 04:44:19;;;;;;;18.33;14.40;;;;;;;;;;5136537;27;20229;-86
2021/12/09 04:46:48;;;;;;;21.47;17.87;;;;;;;;;;5136174;27;20199;-86
2021/12/09 04:49:17;;;;;;;21.73;16.20;;;;;;;;;;5136035;27;20229;-86
2021/12/09 04:51:46;;;;;;;22.43;15.47;;;;;;;;;;5136035;27;20229;-86
2021/12/09 04:54:16;;;;;;;23.43;16.27;;;;;;;;;;5135733;27;20222;-86
2021/12/09 04:56:44;;;;;;;17.50;14.00;;;;;;;;;;5136318;27;20214;-86
2021/12/09 04:59:13;;;;;;;24.87;19.03;;;;;;;;;;5136129;27;20206;-85
2021/12/09 05:01:47;;;;;;;24.70;19.63;;;;;;;;;;5135582;27;20293;-86
2021/12/09 05:04:15;;;;;;;16.23;12.13;;;;;;;;;;5135637;27;20225;-86
2021/12/09 05:06:44;;;;;;;22.00;17.00;;;;;;;;;;5135856;27;20244;-86
2021/12/09 05:09:17;;;;;;;14.80;8.43;;;;;;;;;;5135521;27;20195;-86
2021/12/09 05:11:50;;;;;;;23.33;18.53;;;;;;;;;;5135133;27;20209;-86
2021/12/09 05:14:19;;;;;;;25.53;18.10;;;;;;;;;;5135590;27;20180;-86
2021/12/09 05:16:49;;;;;;;22.43;18.10;;;;;;;;;;5135307;27;20244;-86
2021/12/09 05:19:17;;;;;;;27.93;18.03;;;;;;;;;;5135038;27;20288;-86
2021/12/09 05:21:46;;;;;;;24.77;17.37;;;;;;;;;;5135365;27;20230;-86
2021/12/09 05:24:15;;;;;;;26.37;18.50;;;;;;;;;;5135402;27;20236;-86
2021/12/09 05:26:47;;;;;;;19.70;13.27;;;;;;;;;;5135366;27;20207;-86
2021/12/09 05:29:18;;;;;;;14.67;12.67;;;;;;;;;;5135560;27;20225;-86
2021/12/09 05:34:34;;;;;;;22.27;15.33;;;;;;;;;;5135679;28;20197;-86
2021/12/09 05:37:03;;;;;;;21.57;17.23;;;;;;;;;;5134985;27;20206;-86
2021/12/09 05:39:31;;;;;;;14.03;10.30;;;;;;;;;;5135150;27;20263;-86
2021/12/09 05:42:00;;;;;;;20.00;15.00;;;;;;;;;;5135141;27;20255;-87
2021/12/09 05:44:30;;;;;;;27.70;16.37;;;;;;;;;;5135161;27;20243;-86
2021/12/09 05:46:59;;;;;;;23.27;15.33;;;;;;;;;;5135242;27;20203;-86
2021/12/09 05:49:27;;;;;;;16.13;9.23;;;;;;;;;;5135519;27;20205;-86
2021/12/09 05:51:56;;;;;;;25.40;16.57;;;;;;;;;;5134892;27;20254;-86
2021/12/09 05:54:25;;;;;;;20.00;14.67;;;;;;;;;;5138207;27;20199;-86
2021/12/09 05:56:53;;;;;;;22.50;14.63;;;;;;;;;;5139179;27;20208;-86
2021/12/09 05:59:21;;;;;;;22.50;15.27;;;;;;;;;;5139382;27;20236;-86
2021/12/09 06:01:51;;;;;;;18.57;11.57;;;;;;;;;;5139506;27;20206;-86
2021/12/09 06:04:21;;;;;;;20.33;14.07;;;;;;;;;;5139132;27;20706;-86
2021/12/09 06:06:50;;;;;;;17.27;11.30;;;;;;;;;;5139513;27;20197;-86
2021/12/09 06:09:21;;;;;;;18.97;14.80;;;;;;;;;;5139320;27;20218;-86
2021/12/09 06:11:50;;;;;;;26.60;13.77;;;;;;;;;;5139312;27;20241;-86
2021/12/09 06:14:23;;;;;;;24.27;15.07;;;;;;;;;;5139084;27;20241;-86
2021/12/09 06:16:53;;;;;;;19.33;12.87;;;;;;;;;;5139170;27;20199;-86
2021/12/09 06:19:22;;;;;;;27.57;15.60;;;;;;;;;;5139441;27;20284;-86
2021/12/09 06:21:51;;;;;;;18.67;9.53;;;;;;;;;;5138546;27;20208;-86
2021/12/09 06:24:21;;;;;;;2.40;2.30;;;;;;;;;;5138207;27;20210;-79
2021/12/09 06:26:51;;;;;;;5.03;3.33;;;;;;;;;;5138097;27;20205;-81
2021/12/09 06:29:20;;;;;;;1.57;1.20;;;;;;;;;;5138343;27;20203;-81
2021/12/09 06:31:48;;;;;;;2.77;2.60;;;;;;;;;;5137575;27;20223;-82
2021/12/09 06:34:18;;;;;;;2.03;1.93;;;;;;;;;;5138220;27;20192;-82
2021/12/09 06:36:46;;;;;;;2.33;1.30;;;;;;;;;;5138250;27;20229;-82
2021/12/09 06:39:15;;;;;;;5.57;3.27;;;;;;;;;;5137973;27;20195;-82
2021/12/09 06:41:43;;;;;;;2.53;2.03;;;;;;;;;;5137843;27;20190;-82
2021/12/09 06:44:15;;;;;;;4.73;4.10;;;;;;;;;;5137537;27;20207;-82
2021/12/09 06:46:46;;;;;;;15.50;9.17;;;;;;;;;;5137907;27;20199;-87
2021/12/09 06:49:15;;;;;;;19.07;9.87;;;;;;;;;;5138798;27;20195;-87
2021/12/09 06:51:45;;;;;;;21.63;11.60;;;;;;;;;;5139072;27;20281;-87
2021/12/09 06:54:13;;;;;;;21.97;11.33;;;;;;;;;;5138672;27;20206;-87
2021/12/09 06:56:42;;;;;;;23.40;12.00;;;;;;;;;;5138182;27;20295;-85
2021/12/09 06:59:10;;;;;;;18.80;12.17;;;;;;;;;;5138959;27;20210;-85
2021/12/09 07:01:39;;;;;;;21.87;11.70;;;;;;;;;;5138827;27;20189;-85
2021/12/09 07:04:09;;;;;;;13.87;9.90;;;;;;;;;;5138061;27;20267;-85
2021/12/09 07:06:37;;;;;;;18.17;10.63;;;;;;;;;;5137439;27;20207;-85
2021/12/09 07:09:10;;;;;;;17.67;8.03;;;;;;;;;;5138075;27;20200;-85
2021/12/09 07:11:44;;;;;;;25.10;11.17;;;;;;;;;;5137025;27;20264;-86
2021/12/09 07:14:12;;;;;;;21.63;9.97;;;;;;;;;;5137507;27;20224;-86
2021/12/09 07:16:41;;;;;;;18.13;9.13;;;;;;;;;;5137425;27;20204;-85
2021/12/09 07:19:10;;;;;;;22.83;13.03;;;;;;;;;;5137187;27;20206;-86
2021/12/09 07:21:39;;;;;;;20.27;11.50;;;;;;;;;;5137692;27;20258;-86
2021/12/09 07:24:14;;;;;;;16.50;9.83;;;;;;;;;;5137316;27;20210;-86
2021/12/09 07:26:42;;;;;;;14.00;9.23;;;;;;;;;;5136984;27;20211;-85
2021/12/09 07:29:14;;;;;;;20.70;10.73;;;;;;;;;;5136967;27;20230;-85
2021/12/09 07:31:42;;;;;;;14.27;7.10;;;;;;;;;;5136293;27;20234;-84
2021/12/09 07:34:11;;;;;;;18.93;10.47;;;;;;;;;;5136838;27;20207;-85
2021/12/09 07:36:39;;;;;;;16.30;11.63;;;;;;;;;;5136659;27;20211;-85
2021/12/09 07:41:56;;;;;;;27.17;13.20;;;;;;;;;;5135631;27;20204;-83
2021/12/09 07:44:24;;;;;;;24.13;10.53;;;;;;;;;;5136582;27;20194;-84
2021/12/09 07:46:54;;;;;;;16.00;9.67;;;;;;;;;;5136464;27;20203;-88
2021/12/09 07:49:24;;;;;;;28.17;11.40;;;;;;;;;;5129638;27;20204;-87
2021/12/09 07:51:53;;;;;;;20.97;10.93;;;;;;;;;;5122629;27;20234;-86
2021/12/09 07:54:25;;;;;;;19.93;11.73;;;;;;;;;;5118590;27;20206;-86
2021/12/09 07:56:56;;;;;;;20.67;10.73;;;;;;;;;;5118785;27;20241;-85
2021/12/09 07:59:55;;;;;;;21.40;13.77;;;;;;;;;;5108177;27;20203;-85
2021/12/09 08:02:35;;;;;;;17.60;11.57;;;;;;;;;;5125886;27;20199;-87
2021/12/09 08:05:47;;;;;;;25.00;13.57;;;;;;;;;;5119862;27;20203;-85
2021/12/09 08:08:24;;;;;;;23.70;12.60;;;;;;;;;;5119564;27;20207;-86
2021/12/09 08:10:58;;;;;;;18.03;11.37;;;;;;;;;;5127256;27;20236;-86
2021/12/09 08:13:37;;;;;;;24.23;13.80;;;;;;;;;;5131243;27;20230;-86
2021/12/09 08:16:09;;;;;;;20.63;13.43;;;;;;;;;;5125157;27;20224;-84
2021/12/09 08:21:22;;;;;;;15.30;10.10;;;;;;;;;;5122136;27;20208;-86
2021/12/09 08:23:58;;;;;;;22.23;12.23;;;;;;;;;;5129828;27;20205;-85
2021/12/09 08:26:27;;;;;;;14.27;8.87;;;;;;;;;;5125120;27;20194;-85
2021/12/09 08:29:02;;;;;;;24.07;11.80;;;;;;;;;;5128522;27;20210;-86
2021/12/09 08:31:35;;;;;;;17.17;9.40;;;;;;;;;;5135154;27;20203;-84
2021/12/09 08:34:16;;;;;;;22.10;12.57;;;;;;;;;;5123300;27;20218;-84
2021/12/09 08:36:54;;;;;;;17.47;11.80;;;;;;;;;;5130246;27;20200;-84
2021/12/09 08:39:22;;;;;;;12.27;6.20;;;;;;;;;;5134740;27;20204;-83
2021/12/09 08:45:47;;;;;;;25.87;11.27;;;;;;;;;;5096742;27;20220;-85
2021/12/09 08:48:22;;;;;;;21.43;11.10;;;;;;;;;;5121509;27;20213;-84
2021/12/09 08:50:55;;;;;;;20.03;10.40;;;;;;;;;;5121845;27;20207;-83
2021/12/09 08:53:28;;;;;;;24.53;14.13;;;;;;;;;;5126125;27;20226;-87
2021/12/09 08:55:56;;;;;;;21.83;14.00;;;;;;;;;;5122788;27;20207;-86
2021/12/09 08:58:27;;;;;;;21.77;12.73;;;;;;;;;;5121297;27;20293;-86
2021/12/09 09:01:01;;;;;;;21.80;13.87;;;;;;;;;;5120635;27;20223;-86
2021/12/09 09:03:34;;;;;;;21.17;13.53;;;;;;;;;;5126192;27;20216;-84
2021/12/09 09:06:05;;;;;;;24.97;13.17;;;;;;;;;;5128066;27;20212;-85
2021/12/09 09:08:34;;;;;;;21.87;11.50;;;;;;;;;;5127807;27;20268;-86
2021/12/09 09:11:06;;;;;;;18.77;10.43;;;;;;;;;;5129598;27;20241;-84
2021/12/09 09:13:47;;;;;;;15.70;9.97;;;;;;;;;;5118074;27;20231;-84
2021/12/09 09:16:17;;;;;;;20.03;14.60;;;;;;;;;;5125876;27;20242;-84
2021/12/09 09:18:46;;;;;;;27.17;14.83;;;;;;;;;;5119267;27;20232;-83
2021/12/09 09:21:15;;;;;;;20.43;13.13;;;;;;;;;;5122626;27;20195;-85
2021/12/09 09:23:46;;;;;;;24.13;14.43;;;;;;;;;;5124770;27;20199;-84
2021/12/09 09:29:32;;;;;;;29.13;17.57;;;;;;;;;;5106997;27;20279;-84
2021/12/09 09:32:04;;;;;;;29.13;18.80;;;;;;;;;;5123215;28;20230;-84
2021/12/09 09:34:41;;;;;;;24.80;15.43;;;;;;;;;;5119401;28;20200;-84
2021/12/09 09:37:13;;;;;;;31.20;18.33;;;;;;;;;;5119598;28;20203;-84
2021/12/09 09:39:44;;;;;;;24.17;16.13;;;;;;;;;;5123924;28;20242;-83
2021/12/09 09:42:34;;;;;;;30.60;16.00;;;;;;;;;;5123705;28;20207;-84
2021/12/09 09:45:03;;;;;;;28.70;12.27;;;;;;;;;;5121288;28;20230;-85
2021/12/09 09:47:36;;;;;;;24.80;9.63;;;;;;;;;;5127442;27;20200;-84
2021/12/09 09:50:12;;;;;;;26.20;15.43;;;;;;;;;;5124570;27;20267;-83
2021/12/09 09:52:42;;;;;;;35.83;22.13;;;;;;;;;;5119734;28;20220;-83
2021/12/09 09:55:20;;;;;;;24.10;15.53;;;;;;;;;;5127276;27;20203;-84
2021/12/09 09:57:51;;;;;;;22.80;17.23;;;;;;;;;;5120472;28;20209;-84
2021/12/09 10:00:21;;;;;;;30.00;18.67;;;;;;;;;;5120461;28;20211;-85
2021/12/09 10:02:53;;;;;;;22.70;13.90;;;;;;;;;;5123035;28;20227;-84
2021/12/09 10:05:28;;;;;;;24.23;17.83;;;;;;;;;;5116176;28;20260;-84
2021/12/09 10:07:58;;;;;;;29.43;18.73;;;;;;;;;;5121678;27;20200;-84
2021/12/09 10:10:36;;;;;;;24.30;16.83;;;;;;;;;;5122131;28;20211;-84
2021/12/09 10:13:11;;;;;;;23.23;17.53;;;;;;;;;;5121371;28;20219;-84
2021/12/09 10:15:47;;;;;;;25.93;21.07;;;;;;;;;;5119410;28;20203;-84
2021/12/09 10:18:33;;;;;;;21.30;15.63;;;;;;;;;;5129835;27;20283;-84
2021/12/09 10:21:06;;;;;;;32.17;21.80;;;;;;;;;;5125549;28;20203;-85
2021/12/09 10:23:52;;;;;;;26.67;17.93;;;;;;;;;;5122433;28;20200;-84
2021/12/09 10:29:27;;;;;;;20.50;15.00;;;;;;;;;;5118499;28;20201;-84
2021/12/09 10:35:11;;;;;;;32.73;20.80;;;;;;;;;;5088612;28;20208;-86
2021/12/09 10:37:41;;;;;;;33.27;23.20;;;;;;;;;;5122735;28;20228;-80
2021/12/09 10:40:13;;;;;;;29.40;23.20;;;;;;;;;;5121584;27;20285;-89
2021/12/09 10:42:52;;;;;;;23.03;13.50;;;;;;;;;;5132971;27;20199;-84
2021/12/09 10:45:23;;;;;;;36.00;22.93;;;;;;;;;;5120108;27;20213;-85
2021/12/09 10:48:02;;;;;;;28.63;17.77;;;;;;;;;;5126419;27;20249;-86
2021/12/09 10:50:38;;;;;;;32.27;22.83;;;;;;;;;;5125462;27;20203;-84
2021/12/09 10:53:32;;;;;;;36.50;28.50;;;;;;;;;;5126704;27;20222;-84
2021/12/09 10:56:03;;;;;;;34.00;23.97;;;;;;;;;;5124809;27;20226;-85
2021/12/09 10:58:37;;;;;;;34.93;22.87;;;;;;;;;;5122067;27;20192;-85
2021/12/09 11:01:11;;;;;;;38.07;24.80;;;;;;;;;;5120867;27;20214;-85
2021/12/09 11:03:49;;;;;;;26.87;20.00;;;;;;;;;;5126809;27;20255;-86
2021/12/09 11:06:29;;;;;;;24.90;15.13;;;;;;;;;;5135455;27;20206;-88
2021/12/09 11:09:01;;;;;;;23.20;14.27;;;;;;;;;;5133888;27;20203;-84
2021/12/09 11:11:33;;;;;;;30.70;20.97;;;;;;;;;;5124289;27;20294;-85
2021/12/09 11:14:08;;;;;;;25.03;16.70;;;;;;;;;;5124906;27;20318;-86
2021/12/09 11:16:39;;;;;;;28.80;21.53;;;;;;;;;;5121409;27;20238;-85
2021/12/09 11:19:13;;;;;;;27.90;18.00;;;;;;;;;;5126014;27;20300;-86
2021/12/09 11:21:56;;;;;;;28.43;20.47;;;;;;;;;;5129803;27;20203;-84
2021/12/09 11:24:35;;;;;;;31.33;25.10;;;;;;;;;;5127151;27;20203;-86
2021/12/09 11:27:09;;;;;;;38.97;22.63;;;;;;;;;;5130289;27;20207;-85
2021/12/09 11:29:48;;;;;;;29.33;21.20;;;;;;;;;;5123984;27;20204;-86
2021/12/09 11:32:23;;;;;;;19.37;13.23;;;;;;;;;;5125664;27;20195;-86
2021/12/09 11:34:59;;;;;;;28.63;21.17;;;;;;;;;;5118579;27;20226;-86
2021/12/09 11:37:51;;;;;;;29.63;21.43;;;;;;;;;;5125614;27;20214;-84
2021/12/09 11:40:27;;;;;;;26.33;17.37;;;;;;;;;;5124290;27;20200;-84
2021/12/09 11:43:01;;;;;;;22.90;17.03;;;;;;;;;;5132585;27;20206;-85
2021/12/09 11:45:34;;;;;;;28.00;23.23;;;;;;;;;;5121663;27;20204;-85
2021/12/09 11:48:03;;;;;;;22.57;16.07;;;;;;;;;;5132553;27;20221;-85
2021/12/09 11:50:34;;;;;;;30.53;21.57;;;;;;;;;;5124009;27;20215;-86
2021/12/09 11:53:09;;;;;;;28.60;22.97;;;;;;;;;;5120911;27;20211;-85
2021/12/09 11:55:44;;;;;;;30.27;22.00;;;;;;;;;;5128494;27;20289;-85
2021/12/09 11:58:18;;;;;;;22.63;18.83;;;;;;;;;;5128539;27;20236;-82
2021/12/09 12:07:08;;;;;;;33.83;26.80;;;;;;;;;;5123464;27;20222;-82
2021/12/09 12:12:45;;;;;;;39.50;28.00;;;;;;;;;;5120548;27;20532;-85
2021/12/09 12:15:49;;;;;;;35.77;27.90;;;;;;;;;;5124291;27;20208;-85
2021/12/09 12:18:33;;;;;;;25.13;18.77;;;;;;;;;;5128055;27;20231;-85
2021/12/09 12:24:47;;;;;;;41.40;27.37;;;;;;;;;;5082656;27;20192;-83
2021/12/09 12:27:44;;;;;;;38.80;27.20;;;;;;;;;;5114766;27;20206;-83
2021/12/09 12:36:28;;;;;;;32.53;18.87;;;;;;;;;;5110571;27;20208;-83
2021/12/09 12:39:13;;;;;;;29.77;22.13;;;;;;;;;;5117498;27;20294;-83
2021/12/09 12:41:57;;;;;;;37.03;27.27;;;;;;;;;;5121682;27;20207;-84
2021/12/09 12:44:34;;;;;;;37.73;27.67;;;;;;;;;;5117309;27;20211;-83
2021/12/09 12:47:13;;;;;;;37.50;27.20;;;;;;;;;;5120608;27;20261;-83
2021/12/09 12:50:07;;;;;;;31.10;23.80;;;;;;;;;;5118528;27;20204;-83
2021/12/09 12:52:38;;;;;;;38.97;23.90;;;;;;;;;;5123349;27;20203;-83
2021/12/09 12:55:15;;;;;;;34.40;26.07;;;;;;;;;;5122197;27;20239;-84
2021/12/09 12:57:47;;;;;;;36.87;23.93;;;;;;;;;;5128032;27;20210;-85
2021/12/09 13:00:25;;;;;;;40.50;27.93;;;;;;;;;;5122407;27;20212;-84
2021/12/09 13:03:14;;;;;;;39.37;30.87;;;;;;;;;;5123497;27;20223;-84
2021/12/09 13:06:03;;;;;;;32.20;27.53;;;;;;;;;;5119047;27;20287;-82
2021/12/09 13:08:56;;;;;;;34.47;28.07;;;;;;;;;;5117555;27;20208;-84
2021/12/09 13:11:45;;;;;;;27.93;18.43;;;;;;;;;;5124092;27;20192;-84
2021/12/09 13:14:29;;;;;;;32.67;26.83;;;;;;;;;;5121893;27;20239;-84
2021/12/09 13:17:14;;;;;;;36.73;25.97;;;;;;;;;;5126854;27;20222;-84
2021/12/09 13:19:56;;;;;;;32.43;27.20;;;;;;;;;;5123512;27;20208;-82
2021/12/09 13:22:29;;;;;;;33.00;24.87;;;;;;;;;;5120524;27;20203;-83
2021/12/09 13:25:12;;;;;;;36.80;24.17;;;;;;;;;;5116859;27;20225;-84
2021/12/09 13:27:57;;;;;;;30.30;20.97;;;;;;;;;;5126085;28;20207;-83
2021/12/09 13:30:53;;;;;;;28.70;19.63;;;;;;;;;;5119108;28;20269;-86
2021/12/09 13:39:23;;;;;;;29.77;20.00;;;;;;;;;;5122804;28;20257;-84
2021/12/09 13:47:37;;;;;;;28.87;23.17;;;;;;;;;;5133588;28;20209;-84
2021/12/09 13:55:52;;;;;;;22.50;17.37;;;;;;;;;;5116068;28;20656;-84
2021/12/09 13:58:25;;;;;;;20.00;16.77;;;;;;;;;;5134118;27;20207;-85
2021/12/09 14:00:56;;;;;;;26.17;20.87;;;;;;;;;;5128697;27;20211;-84
2021/12/09 14:03:32;;;;;;;22.77;20.27;;;;;;;;;;5126696;28;20256;-84
2021/12/09 14:06:04;;;;;;;22.90;19.57;;;;;;;;;;5133727;27;20192;-84
2021/12/09 14:08:40;;;;;;;22.33;17.73;;;;;;;;;;5113625;28;20204;-84
2021/12/09 14:11:20;;;;;;;23.53;21.10;;;;;;;;;;5125116;28;20316;-84
2021/12/09 14:13:58;;;;;;;23.17;20.67;;;;;;;;;;5113461;28;20197;-84
2021/12/09 14:16:49;;;;;;;23.87;20.10;;;;;;;;;;5113971;27;20255;-84
2021/12/09 14:22:14;;;;;;;25.93;22.37;;;;;;;;;;5117786;27;20208;-84
2021/12/09 14:24:45;;;;;;;23.20;20.70;;;;;;;;;;5117757;27;20196;-84
2021/12/09 14:27:16;;;;;;;23.20;19.70;;;;;;;;;;5117298;28;20227;-85
2021/12/09 14:29:48;;;;;;;32.80;22.63;;;;;;;;;;5117325;28;20188;-85
2021/12/09 14:32:17;;;;;;;31.40;19.77;;;;;;;;;;5116789;27;20200;-84
2021/12/09 14:34:47;;;;;;;24.67;18.43;;;;;;;;;;5117239;28;20311;-83
2021/12/09 14:37:36;;;;;;;27.60;19.83;;;;;;;;;;5122217;27;20257;-84
2021/12/09 14:40:08;;;;;;;23.83;19.87;;;;;;;;;;5115845;28;20215;-83
2021/12/09 14:42:49;;;;;;;25.17;20.40;;;;;;;;;;5117361;28;20390;-84
2021/12/09 14:45:23;;;;;;;23.03;17.67;;;;;;;;;;5116594;28;20220;-84
2021/12/09 14:47:57;;;;;;;26.40;19.63;;;;;;;;;;5114993;28;20192;-83
2021/12/09 14:50:36;;;;;;;21.10;16.40;;;;;;;;;;5133486;27;20249;-83
2021/12/09 14:53:41;;;;;;;24.37;16.47;;;;;;;;;;5136982;27;20207;-84
2021/12/09 14:56:33;;;;;;;21.70;15.03;;;;;;;;;;5137836;27;20237;-83
2021/12/09 14:59:35;;;;;;;23.63;21.20;;;;;;;;;;5123386;27;20196;-83
2021/12/09 15:02:24;;;;;;;25.10;18.03;;;;;;;;;;5107233;27;20212;-83
2021/12/09 15:05:02;;;;;;;22.80;18.67;;;;;;;;;;5134389;27;20291;-84
2021/12/09 15:07:51;;;;;;;;;;;;;;;;;;;;;
2021/12/09 15:10:30;;;;;;;25.63;20.13;;;;;;;;;;5116042;28;20299;-85
2021/12/09 15:13:01;;;;;;;25.40;21.23;;;;;;;;;;5116396;28;20208;-85
2021/12/09 15:15:41;;;;;;;29.57;26.50;;;;;;;;;;5118560;27;20227;-84
2021/12/09 15:21:08;;;;;;;33.67;24.53;;;;;;;;;;5116321;28;20214;-84
2021/12/09 15:23:57;;;;;;;24.77;17.03;;;;;;;;;;5124914;27;20199;-85
2021/12/09 15:26:30;;;;;;;29.93;22.83;;;;;;;;;;5133211;27;20212;-86
2021/12/09 15:29:14;;;;;;;29.50;24.23;;;;;;;;;;5126444;27;20294;-83
2021/12/09 15:31:48;;;;;;;28.07;18.57;;;;;;;;;;5116070;28;20215;-85
2021/12/09 15:34:31;;;;;;;25.07;20.93;;;;;;;;;;5124911;27;20508;-84
2021/12/09 15:37:10;;;;;;;25.10;19.43;;;;;;;;;;5126699;27;20235;-84
2021/12/09 15:39:43;;;;;;;33.83;18.50;;;;;;;;;;5115131;27;20214;-85
2021/12/09 15:42:18;;;;;;;27.40;22.63;;;;;;;;;;5130068;27;20288;-84
2021/12/09 15:45:09;;;;;;;25.47;17.60;;;;;;;;;;5115164;28;20221;-83
2021/12/09 15:47:50;;;;;;;16.03;11.33;;;;;;;;;;5134201;27;20207;-85
2021/12/09 15:50:29;;;;;;;27.60;17.90;;;;;;;;;;5116276;27;20200;-83
2021/12/09 15:53:10;;;;;;;34.33;22.20;;;;;;;;;;5115935;28;20202;-82
2021/12/09 15:55:47;;;;;;;21.87;14.73;;;;;;;;;;5115971;27;20212;-83